Terminal Aerodrome Forecast
Issued by NWS Austin/San Antonio, TX

Home | Current Version | Previous Version | Text Only | Print | Product List | Glossary On
Versions: 1 2 3 4 5 6 7 8 9 10 11 12 13
561
FTUS44 KEWX 131401 AAA
TAFSAT
TAF AMD
KSAT 131401Z 1314/1418 05005KT P6SM BKN010
     FM131700 14010KT P6SM SCT018 BKN050
     FM140600 17010KT P6SM BKN015
     FM140800 17010KT P6SM OVC007=

USA.gov is the U.S. government's official web portal to all federal, state and local government web resources and services.